sensor_id;sensor_type;location;lat;lon;timestamp;temperature;humidity
52073;DHT22;38074;51.232;6.826;2023-12-07T00:05:59;22.10;40.70
52073;DHT22;38074;51.232;6.826;2023-12-07T00:13:15;22.10;40.00
52073;DHT22;38074;51.232;6.826;2023-12-07T00:20:31;22.10;39.90
52073;DHT22;38074;51.232;6.826;2023-12-07T00:27:46;22.10;39.70
52073;DHT22;38074;51.232;6.826;2023-12-07T00:35:02;22.10;39.70
52073;DHT22;38074;51.232;6.826;2023-12-07T00:42:17;22.10;40.20
52073;DHT22;38074;51.232;6.826;2023-12-07T00:49:33;22.10;39.60
52073;DHT22;38074;51.232;6.826;2023-12-07T00:56:48;22.10;39.50
52073;DHT22;38074;51.232;6.826;2023-12-07T01:04:04;22.10;39.60
52073;DHT22;38074;51.232;6.826;2023-12-07T01:11:21;22.10;39.30
52073;DHT22;38074;51.232;6.826;2023-12-07T01:18:36;22.00;39.30
52073;DHT22;38074;51.232;6.826;2023-12-07T01:25:52;22.10;39.30
52073;DHT22;38074;51.232;6.826;2023-12-07T01:33:08;22.10;39.20
52073;DHT22;38074;51.232;6.826;2023-12-07T01:40:23;22.10;39.30
52073;DHT22;38074;51.232;6.826;2023-12-07T01:47:39;22.10;39.10
52073;DHT22;38074;51.232;6.826;2023-12-07T01:54:55;22.10;39.10
52073;DHT22;38074;51.232;6.826;2023-12-07T02:02:10;22.10;39.00
52073;DHT22;38074;51.232;6.826;2023-12-07T02:09:26;22.10;39.00
52073;DHT22;38074;51.232;6.826;2023-12-07T02:16:55;22.10;39.00
52073;DHT22;38074;51.232;6.826;2023-12-07T02:24:20;22.10;38.90
52073;DHT22;38074;51.232;6.826;2023-12-07T02:31:36;22.10;38.90
52073;DHT22;38074;51.232;6.826;2023-12-07T02:38:53;22.10;39.50
52073;DHT22;38074;51.232;6.826;2023-12-07T02:46:11;22.10;38.90
52073;DHT22;38074;51.232;6.826;2023-12-07T02:53:27;22.10;38.90
52073;DHT22;38074;51.232;6.826;2023-12-07T03:00:42;22.00;38.80
52073;DHT22;38074;51.232;6.826;2023-12-07T03:07:57;22.00;38.80
52073;DHT22;38074;51.232;6.826;2023-12-07T03:15:13;22.10;38.90
52073;DHT22;38074;51.232;6.826;2023-12-07T03:22:28;22.10;38.80
52073;DHT22;38074;51.232;6.826;2023-12-07T03:29:44;22.00;38.80
52073;DHT22;38074;51.232;6.826;2023-12-07T03:37:00;22.00;38.80
52073;DHT22;38074;51.232;6.826;2023-12-07T03:44:15;22.10;38.80
52073;DHT22;38074;51.232;6.826;2023-12-07T03:51:32;22.00;38.70
52073;DHT22;38074;51.232;6.826;2023-12-07T03:58:47;22.10;38.80
52073;DHT22;38074;51.232;6.826;2023-12-07T04:06:03;22.10;38.80
52073;DHT22;38074;51.232;6.826;2023-12-07T04:13:18;22.10;38.80
52073;DHT22;38074;51.232;6.826;2023-12-07T04:20:34;22.10;38.70
52073;DHT22;38074;51.232;6.826;2023-12-07T04:27:49;22.00;38.70
52073;DHT22;38074;51.232;6.826;2023-12-07T04:35:05;22.10;38.70
52073;DHT22;38074;51.232;6.826;2023-12-07T04:42:22;22.00;38.70
52073;DHT22;38074;51.232;6.826;2023-12-07T04:49:37;22.00;38.70
52073;DHT22;38074;51.232;6.826;2023-12-07T04:56:53;22.10;38.80
52073;DHT22;38074;51.232;6.826;2023-12-07T05:04:08;22.10;38.80
52073;DHT22;38074;51.232;6.826;2023-12-07T05:11:24;22.10;38.80
52073;DHT22;38074;51.232;6.826;2023-12-07T05:18:40;22.10;38.80
52073;DHT22;38074;51.232;6.826;2023-12-07T05:25:55;22.10;38.80
52073;DHT22;38074;51.232;6.826;2023-12-07T05:33:11;22.10;38.80
52073;DHT22;38074;51.232;6.826;2023-12-07T05:40:27;22.10;38.80
52073;DHT22;38074;51.232;6.826;2023-12-07T05:47:42;22.10;38.80
52073;DHT22;38074;51.232;6.826;2023-12-07T05:54:58;22.00;38.80
52073;DHT22;38074;51.232;6.826;2023-12-07T06:02:13;22.10;38.80
52073;DHT22;38074;51.232;6.826;2023-12-07T06:09:29;22.00;38.80
52073;DHT22;38074;51.232;6.826;2023-12-07T06:16:44;22.00;38.70
52073;DHT22;38074;51.232;6.826;2023-12-07T06:24:00;22.00;38.80
52073;DHT22;38074;51.232;6.826;2023-12-07T06:31:15;22.00;39.10
52073;DHT22;38074;51.232;6.826;2023-12-07T06:38:35;22.10;39.50
52073;DHT22;38074;51.232;6.826;2023-12-07T06:45:51;22.10;39.90
52073;DHT22;38074;51.232;6.826;2023-12-07T06:53:07;22.10;40.10
52073;DHT22;38074;51.232;6.826;2023-12-07T07:00:22;22.10;40.40
52073;DHT22;38074;51.232;6.826;2023-12-07T07:07:39;22.10;41.10
52073;DHT22;38074;51.232;6.826;2023-12-07T07:14:55;22.10;40.60
52073;DHT22;38074;51.232;6.826;2023-12-07T07:22:11;22.10;40.50
52073;DHT22;38074;51.232;6.826;2023-12-07T07:29:26;22.10;40.90
52073;DHT22;38074;51.232;6.826;2023-12-07T07:36:43;22.10;40.80
52073;DHT22;38074;51.232;6.826;2023-12-07T07:43:58;22.10;40.70
52073;DHT22;38074;51.232;6.826;2023-12-07T07:51:14;22.10;40.90
52073;DHT22;38074;51.232;6.826;2023-12-07T07:58:30;22.10;41.70
52073;DHT22;38074;51.232;6.826;2023-12-07T08:05:45;22.10;41.80
52073;DHT22;38074;51.232;6.826;2023-12-07T08:13:01;22.10;42.00
52073;DHT22;38074;51.232;6.826;2023-12-07T08:20:16;22.10;42.00
52073;DHT22;38074;51.232;6.826;2023-12-07T08:27:32;22.10;42.10
52073;DHT22;38074;51.232;6.826;2023-12-07T08:34:48;22.10;41.90
52073;DHT22;38074;51.232;6.826;2023-12-07T08:42:04;22.20;41.90
52073;DHT22;38074;51.232;6.826;2023-12-07T08:49:19;22.10;41.90
52073;DHT22;38074;51.232;6.826;2023-12-07T08:56:35;22.20;41.50
52073;DHT22;38074;51.232;6.826;2023-12-07T09:03:50;22.10;41.30
52073;DHT22;38074;51.232;6.826;2023-12-07T09:11:06;22.10;42.00
52073;DHT22;38074;51.232;6.826;2023-12-07T09:18:21;22.20;41.90
52073;DHT22;38074;51.232;6.826;2023-12-07T09:25:37;22.20;41.90
52073;DHT22;38074;51.232;6.826;2023-12-07T09:32:52;22.20;41.80
52073;DHT22;38074;51.232;6.826;2023-12-07T09:40:20;22.20;41.70
52073;DHT22;38074;51.232;6.826;2023-12-07T09:47:37;22.20;41.90
52073;DHT22;38074;51.232;6.826;2023-12-07T09:54:55;22.20;41.60
52073;DHT22;38074;51.232;6.826;2023-12-07T10:02:13;22.30;41.40
52073;DHT22;38074;51.232;6.826;2023-12-07T10:09:29;22.30;41.80
52073;DHT22;38074;51.232;6.826;2023-12-07T10:16:54;22.30;41.60
52073;DHT22;38074;51.232;6.826;2023-12-07T10:24:11;22.30;41.50
52073;DHT22;38074;51.232;6.826;2023-12-07T10:31:26;22.30;40.90
52073;DHT22;38074;51.232;6.826;2023-12-07T10:38:42;22.20;41.70
52073;DHT22;38074;51.232;6.826;2023-12-07T10:45:57;22.20;41.90
52073;DHT22;38074;51.232;6.826;2023-12-07T10:53:24;22.30;41.70
52073;DHT22;38074;51.232;6.826;2023-12-07T11:00:45;22.30;42.00
52073;DHT22;38074;51.232;6.826;2023-12-07T11:08:09;22.30;42.10
52073;DHT22;38074;51.232;6.826;2023-12-07T11:15:33;22.40;42.40
52073;DHT22;38074;51.232;6.826;2023-12-07T11:22:56;22.30;41.90
52073;DHT22;38074;51.232;6.826;2023-12-07T11:30:24;22.30;41.90
52073;DHT22;38074;51.232;6.826;2023-12-07T11:38:03;22.30;41.90
52073;DHT22;38074;51.232;6.826;2023-12-07T11:45:41;22.40;41.70
52073;DHT22;38074;51.232;6.826;2023-12-07T11:52:58;22.40;41.50
52073;DHT22;38074;51.232;6.826;2023-12-07T12:00:17;22.40;41.50
52073;DHT22;38074;51.232;6.826;2023-12-07T12:07:33;22.30;40.90
52073;DHT22;38074;51.232;6.826;2023-12-07T12:14:54;22.30;41.40
52073;DHT22;38074;51.232;6.826;2023-12-07T12:22:19;22.30;41.40
52073;DHT22;38074;51.232;6.826;2023-12-07T12:29:51;22.30;41.50
52073;DHT22;38074;51.232;6.826;2023-12-07T12:37:24;22.40;41.70
52073;DHT22;38074;51.232;6.826;2023-12-07T12:45:07;22.40;41.60
52073;DHT22;38074;51.232;6.826;2023-12-07T12:52:40;22.40;41.60
52073;DHT22;38074;51.232;6.826;2023-12-07T13:00:04;22.40;41.60
52073;DHT22;38074;51.232;6.826;2023-12-07T13:07:22;22.40;41.40
52073;DHT22;38074;51.232;6.826;2023-12-07T13:14:39;22.30;40.80
52073;DHT22;38074;51.232;6.826;2023-12-07T13:21:55;22.30;40.40
52073;DHT22;38074;51.232;6.826;2023-12-07T13:29:12;22.30;40.70
52073;DHT22;38074;51.232;6.826;2023-12-07T13:36:27;22.30;40.60
52073;DHT22;38074;51.232;6.826;2023-12-07T13:43:44;22.30;40.70
52073;DHT22;38074;51.232;6.826;2023-12-07T13:51:00;22.30;40.70
52073;DHT22;38074;51.232;6.826;2023-12-07T13:58:17;22.30;40.90
52073;DHT22;38074;51.232;6.826;2023-12-07T14:05:34;22.30;40.90
52073;DHT22;38074;51.232;6.826;2023-12-07T14:12:50;22.30;40.80
52073;DHT22;38074;51.232;6.826;2023-12-07T14:20:09;22.30;40.90
52073;DHT22;38074;51.232;6.826;2023-12-07T14:27:29;22.30;41.00
52073;DHT22;38074;51.232;6.826;2023-12-07T14:34:45;22.30;41.10
52073;DHT22;38074;51.232;6.826;2023-12-07T14:42:03;22.30;41.10
52073;DHT22;38074;51.232;6.826;2023-12-07T14:49:22;22.40;41.30
52073;DHT22;38074;51.232;6.826;2023-12-07T14:56:43;22.40;41.30
52073;DHT22;38074;51.232;6.826;2023-12-07T15:04:05;22.40;41.30
52073;DHT22;38074;51.232;6.826;2023-12-07T15:11:23;22.30;41.40
52073;DHT22;38074;51.232;6.826;2023-12-07T15:18:39;22.30;41.30
52073;DHT22;38074;51.232;6.826;2023-12-07T15:26:00;22.30;41.30
52073;DHT22;38074;51.232;6.826;2023-12-07T15:33:16;22.30;41.70
52073;DHT22;38074;51.232;6.826;2023-12-07T15:40:32;22.30;40.80
52073;DHT22;38074;51.232;6.826;2023-12-07T15:47:49;22.30;40.60
52073;DHT22;38074;51.232;6.826;2023-12-07T15:55:05;22.30;40.50
52073;DHT22;38074;51.232;6.826;2023-12-07T16:02:23;22.30;40.40
52073;DHT22;38074;51.232;6.826;2023-12-07T16:09:39;22.30;40.50
52073;DHT22;38074;51.232;6.826;2023-12-07T16:16:57;22.30;40.20
52073;DHT22;38074;51.232;6.826;2023-12-07T16:24:13;22.30;40.00
52073;DHT22;38074;51.232;6.826;2023-12-07T16:31:28;22.30;40.00
52073;DHT22;38074;51.232;6.826;2023-12-07T16:38:44;22.30;39.90
52073;DHT22;38074;51.232;6.826;2023-12-07T16:46:00;22.30;39.80
52073;DHT22;38074;51.232;6.826;2023-12-07T16:53:19;22.30;39.80
52073;DHT22;38074;51.232;6.826;2023-12-07T17:00:34;22.30;39.70
52073;DHT22;38074;51.232;6.826;2023-12-07T17:07:50;22.30;39.70
52073;DHT22;38074;51.232;6.826;2023-12-07T17:15:06;22.30;40.20
52073;DHT22;38074;51.232;6.826;2023-12-07T17:22:22;22.30;40.70
52073;DHT22;38074;51.232;6.826;2023-12-07T17:29:37;22.20;40.90
52073;DHT22;38074;51.232;6.826;2023-12-07T17:36:54;22.30;41.20
52073;DHT22;38074;51.232;6.826;2023-12-07T17:44:10;22.30;41.40
52073;DHT22;38074;51.232;6.826;2023-12-07T17:51:26;22.30;41.40
52073;DHT22;38074;51.232;6.826;2023-12-07T17:58:42;22.30;41.40
52073;DHT22;38074;51.232;6.826;2023-12-07T18:05:57;22.30;41.20
52073;DHT22;38074;51.232;6.826;2023-12-07T18:13:16;22.30;41.10
52073;DHT22;38074;51.232;6.826;2023-12-07T18:20:34;22.30;41.00
52073;DHT22;38074;51.232;6.826;2023-12-07T18:27:50;22.30;41.80
52073;DHT22;38074;51.232;6.826;2023-12-07T18:35:05;22.30;41.10
52073;DHT22;38074;51.232;6.826;2023-12-07T18:42:21;22.30;41.20
52073;DHT22;38074;51.232;6.826;2023-12-07T18:49:36;22.30;40.90
52073;DHT22;38074;51.232;6.826;2023-12-07T18:56:52;22.30;40.60
52073;DHT22;38074;51.232;6.826;2023-12-07T19:04:08;22.30;40.40
52073;DHT22;38074;51.232;6.826;2023-12-07T19:11:23;22.30;40.20
52073;DHT22;38074;51.232;6.826;2023-12-07T19:18:42;22.30;40.00
52073;DHT22;38074;51.232;6.826;2023-12-07T19:25:57;22.30;39.90
52073;DHT22;38074;51.232;6.826;2023-12-07T19:33:15;22.30;40.00
52073;DHT22;38074;51.232;6.826;2023-12-07T19:40:33;22.30;40.00
52073;DHT22;38074;51.232;6.826;2023-12-07T19:47:52;22.40;39.30
52073;DHT22;38074;51.232;6.826;2023-12-07T19:55:08;22.30;37.80
52073;DHT22;38074;51.232;6.826;2023-12-07T20:02:24;22.30;38.30
52073;DHT22;38074;51.232;6.826;2023-12-07T20:09:40;22.30;38.10
52073;DHT22;38074;51.232;6.826;2023-12-07T20:16:55;22.20;38.00
52073;DHT22;38074;51.232;6.826;2023-12-07T20:24:12;22.30;38.00
52073;DHT22;38074;51.232;6.826;2023-12-07T20:31:29;22.20;38.00
52073;DHT22;38074;51.232;6.826;2023-12-07T20:38:45;22.20;37.90
52073;DHT22;38074;51.232;6.826;2023-12-07T20:46:00;22.20;38.60
52073;DHT22;38074;51.232;6.826;2023-12-07T20:53:16;22.30;38.80
52073;DHT22;38074;51.232;6.826;2023-12-07T21:00:32;22.30;38.80
52073;DHT22;38074;51.232;6.826;2023-12-07T21:07:47;22.30;38.70
52073;DHT22;38074;51.232;6.826;2023-12-07T21:15:03;22.20;38.50
52073;DHT22;38074;51.232;6.826;2023-12-07T21:22:19;22.20;38.20
52073;DHT22;38074;51.232;6.826;2023-12-07T21:29:36;22.20;37.80
52073;DHT22;38074;51.232;6.826;2023-12-07T21:36:52;22.20;37.80
52073;DHT22;38074;51.232;6.826;2023-12-07T21:44:07;22.20;37.70
52073;DHT22;38074;51.232;6.826;2023-12-07T21:51:25;22.20;37.40
52073;DHT22;38074;51.232;6.826;2023-12-07T21:58:41;22.20;37.20
52073;DHT22;38074;51.232;6.826;2023-12-07T22:05:57;22.20;37.10
52073;DHT22;38074;51.232;6.826;2023-12-07T22:13:16;22.20;37.00
52073;DHT22;38074;51.232;6.826;2023-12-07T22:20:31;22.20;37.00
52073;DHT22;38074;51.232;6.826;2023-12-07T22:27:49;22.20;36.90
52073;DHT22;38074;51.232;6.826;2023-12-07T22:35:04;22.20;36.90
52073;DHT22;38074;51.232;6.826;2023-12-07T22:42:20;22.20;36.70
52073;DHT22;38074;51.232;6.826;2023-12-07T22:49:37;22.20;37.00
52073;DHT22;38074;51.232;6.826;2023-12-07T22:56:53;22.20;36.90
52073;DHT22;38074;51.232;6.826;2023-12-07T23:04:09;22.20;36.80
52073;DHT22;38074;51.232;6.826;2023-12-07T23:11:24;22.20;36.70
52073;DHT22;38074;51.232;6.826;2023-12-07T23:18:40;22.20;36.50
52073;DHT22;38074;51.232;6.826;2023-12-07T23:25:56;22.20;36.50
52073;DHT22;38074;51.232;6.826;2023-12-07T23:33:12;22.20;36.50
52073;DHT22;38074;51.232;6.826;2023-12-07T23:40:27;22.20;36.40
52073;DHT22;38074;51.232;6.826;2023-12-07T23:47:45;22.20;36.40
52073;DHT22;38074;51.232;6.826;2023-12-07T23:55:01;22.20;36.40
